createdAt,value
2019-03-20T00:02:01.408Z,10.20
2019-03-20T00:04:29.144Z,10.50
2019-03-20T00:06:56.926Z,10.17
2019-03-20T00:09:24.745Z,10.30
2019-03-20T00:11:52.445Z,10.33
2019-03-20T00:14:20.170Z,9.87
2019-03-20T00:16:47.889Z,10.53
2019-03-20T00:19:15.747Z,10.07
2019-03-20T00:21:43.514Z,9.80
2019-03-20T00:24:11.222Z,9.13
2019-03-20T00:26:39.084Z,9.17
2019-03-20T00:29:06.801Z,9.30
2019-03-20T00:31:34.534Z,9.07
2019-03-20T00:34:02.254Z,9.00
2019-03-20T00:36:29.990Z,8.97
2019-03-20T00:38:57.775Z,9.33
2019-03-20T00:41:25.549Z,9.30
2019-03-20T00:43:53.246Z,9.80
2019-03-20T00:46:20.955Z,9.07
2019-03-20T00:48:48.671Z,9.37
2019-03-20T00:51:16.415Z,8.93
2019-03-20T00:53:44.186Z,9.60
2019-03-20T00:56:11.945Z,8.40
2019-03-20T01:14:00.948Z,9.57
2019-03-20T01:16:28.811Z,9.37
2019-03-20T01:18:56.570Z,9.37
2019-03-20T01:21:24.305Z,9.80
2019-03-20T01:23:52.097Z,9.53
2019-03-20T01:26:19.865Z,9.50
2019-03-20T01:28:47.632Z,9.27
2019-03-20T01:31:15.467Z,9.60
2019-03-20T01:33:43.264Z,10.27
2019-03-20T01:36:10.964Z,9.17
2019-03-20T01:38:38.814Z,9.20
2019-03-20T01:41:06.566Z,9.30
2019-03-20T01:43:34.345Z,9.77
2019-03-20T01:46:02.101Z,9.73
2019-03-20T01:48:29.846Z,10.60
2019-03-20T01:50:57.546Z,9.10
2019-03-20T01:53:25.274Z,9.60
2019-03-20T01:55:53.110Z,10.63
2019-03-20T01:58:20.954Z,10.47
2019-03-20T02:00:48.666Z,10.47
2019-03-20T02:03:16.500Z,10.03
2019-03-20T02:05:44.229Z,10.10
2019-03-20T02:08:12.118Z,10.83
2019-03-20T02:10:39.854Z,10.50
2019-03-20T02:13:07.571Z,10.43
2019-03-20T02:15:39.368Z,10.50
2019-03-20T02:18:04.760Z,10.90
2019-03-20T02:20:32.576Z,10.40
2019-03-20T02:23:00.325Z,11.50
2019-03-20T02:25:28.103Z,11.13
2019-03-20T02:27:55.807Z,11.27
2019-03-20T02:30:23.521Z,10.70
2019-03-20T02:32:51.245Z,10.50
2019-03-20T02:35:19.064Z,10.43
2019-03-20T02:37:46.834Z,11.07
2019-03-20T02:40:14.633Z,11.33
2019-03-20T02:42:42.379Z,11.73
2019-03-20T02:45:10.147Z,11.50
2019-03-20T02:47:37.945Z,11.43
2019-03-20T02:50:05.754Z,11.37
2019-03-20T02:52:33.474Z,11.80
2019-03-20T02:55:01.230Z,11.90
2019-03-20T02:57:28.983Z,12.73
2019-03-20T02:59:56.843Z,12.73
2019-03-20T03:02:24.570Z,12.47
2019-03-20T03:04:52.365Z,12.87
2019-03-20T03:07:20.125Z,12.83
2019-03-20T03:09:48.147Z,13.23
2019-03-20T03:12:15.873Z,13.77
2019-03-20T03:14:43.636Z,13.43
2019-03-20T03:17:11.368Z,13.60
2019-03-20T03:19:39.289Z,13.47
2019-03-20T03:22:07.007Z,13.63
2019-03-20T03:24:34.737Z,14.17
2019-03-20T03:27:02.460Z,14.23
2019-03-20T03:29:30.233Z,13.17
2019-03-20T03:31:57.947Z,14.07
2019-03-20T03:34:25.665Z,14.50
2019-03-20T03:36:53.396Z,14.13
2019-03-20T03:39:21.191Z,15.33
2019-03-20T03:41:48.924Z,14.20
2019-03-20T03:44:16.728Z,14.50
2019-03-20T03:46:44.517Z,14.67
2019-03-20T03:49:12.365Z,15.53
2019-03-20T03:51:40.138Z,15.83
2019-03-20T03:54:07.842Z,16.87
2019-03-20T03:56:35.669Z,15.77
2019-03-20T03:59:03.415Z,16.33
2019-03-20T04:01:31.285Z,16.60
2019-03-20T04:03:59.088Z,16.50
2019-03-20T04:06:35.530Z,15.90
2019-03-20T04:08:56.460Z,16.97
2019-03-20T04:11:24.232Z,16.60
2019-03-20T04:13:51.961Z,16.83
2019-03-20T04:16:19.751Z,16.53
2019-03-20T04:18:47.568Z,16.33
2019-03-20T04:21:15.363Z,16.00
2019-03-20T04:23:43.075Z,17.50
2019-03-20T04:26:10.810Z,18.30
2019-03-20T04:28:38.576Z,17.73
2019-03-20T04:31:06.316Z,16.87
2019-03-20T04:33:34.106Z,17.60
2019-03-20T04:36:01.888Z,17.83
2019-03-20T04:38:29.602Z,16.43
2019-03-20T04:40:57.335Z,17.53
2019-03-20T04:43:25.169Z,17.80
2019-03-20T04:45:52.972Z,18.60
2019-03-20T04:48:20.808Z,18.20
2019-03-20T04:50:48.573Z,18.63
2019-03-20T04:53:16.342Z,17.87
2019-03-20T04:55:44.230Z,18.93
2019-03-20T04:58:12.097Z,17.77
2019-03-20T05:00:39.814Z,19.53
2019-03-20T05:03:07.654Z,18.80
2019-03-20T05:05:35.473Z,17.73
2019-03-20T05:08:03.249Z,18.67
2019-03-20T05:10:30.962Z,19.30
2019-03-20T05:12:58.787Z,18.80
2019-03-20T05:15:26.541Z,18.93
2019-03-20T05:17:54.316Z,18.80
2019-03-20T05:20:22.075Z,19.10
2019-03-20T05:22:49.842Z,18.87
2019-03-20T05:25:17.735Z,18.90
2019-03-20T05:27:45.617Z,18.67
2019-03-20T05:30:13.346Z,20.30
2019-03-20T05:32:41.043Z,18.87
2019-03-20T05:35:08.917Z,19.60
2019-03-20T05:37:36.657Z,20.60
2019-03-20T05:40:04.660Z,19.87
2019-03-20T05:42:32.481Z,19.97
2019-03-20T05:45:00.383Z,20.03
2019-03-20T05:47:28.435Z,19.70
2019-03-20T05:49:56.199Z,21.07
2019-03-20T05:52:24.028Z,21.53
2019-03-20T05:54:52.049Z,21.13
2019-03-20T05:57:19.803Z,20.13
2019-03-20T05:59:47.535Z,21.37
2019-03-20T06:02:15.334Z,21.20
2019-03-20T06:04:43.141Z,19.83
2019-03-20T06:07:21.062Z,21.57
2019-03-20T06:09:40.447Z,21.50
2019-03-20T06:12:08.268Z,21.80
2019-03-20T06:14:36.022Z,20.83
2019-03-20T06:17:03.784Z,21.37
2019-03-20T06:19:31.538Z,21.97
2019-03-20T06:21:59.311Z,20.57
2019-03-20T06:24:27.069Z,21.77
2019-03-20T06:26:54.863Z,21.87
2019-03-20T06:29:22.598Z,21.63
2019-03-20T06:31:50.612Z,21.53
2019-03-20T06:34:18.345Z,20.50
2019-03-20T06:36:46.153Z,21.60
2019-03-20T06:39:13.895Z,21.87
2019-03-20T06:41:41.760Z,21.40
2019-03-20T06:44:09.737Z,21.50
2019-03-20T06:46:37.567Z,21.10
2019-03-20T06:49:07.758Z,21.60
2019-03-20T06:51:34.904Z,21.83
2019-03-20T06:54:02.731Z,21.50
2019-03-20T06:56:30.539Z,21.30
2019-03-20T06:58:58.272Z,20.87
2019-03-20T07:01:26.089Z,20.97
2019-03-20T07:03:53.840Z,21.63
2019-03-20T07:06:21.677Z,20.83
2019-03-20T07:08:49.470Z,22.13
2019-03-20T07:11:18.433Z,21.70
2019-03-20T07:13:46.149Z,21.30
2019-03-20T07:16:13.960Z,21.37
2019-03-20T07:18:41.845Z,21.40
2019-03-20T07:21:09.625Z,20.47
2019-03-20T07:23:37.364Z,19.83
2019-03-20T07:26:05.241Z,21.63
2019-03-20T07:28:32.940Z,20.83
2019-03-20T07:31:01.120Z,20.47
2019-03-20T07:33:28.820Z,20.60
2019-03-20T07:35:59.671Z,19.83
2019-03-20T07:38:27.474Z,18.90
2019-03-20T07:40:55.244Z,18.60
2019-03-20T07:43:23.072Z,19.57
2019-03-20T07:45:50.852Z,19.03
2019-03-20T07:48:22.288Z,20.03
2019-03-20T07:50:48.128Z,18.97
2019-03-20T07:53:15.959Z,19.77
2019-03-20T07:55:43.755Z,20.97
2019-03-20T07:58:11.564Z,19.33
2019-03-20T08:00:39.283Z,19.10
2019-03-20T08:03:07.086Z,19.57
2019-03-20T08:05:35.486Z,18.87
2019-03-20T08:08:07.439Z,16.70
2019-03-20T08:10:33.395Z,18.40
2019-03-20T08:13:01.190Z,18.93
2019-03-20T08:15:28.967Z,18.07
2019-03-20T08:17:56.738Z,18.33
2019-03-20T08:20:24.684Z,18.13
2019-03-20T08:22:52.498Z,16.80
2019-03-20T08:25:20.210Z,18.03
2019-03-20T08:27:48.187Z,16.97
2019-03-20T08:30:16.003Z,17.73
2019-03-20T08:32:43.771Z,17.80
2019-03-20T08:35:11.715Z,18.43
2019-03-20T08:37:39.514Z,17.10
2019-03-20T08:40:07.280Z,16.93
2019-03-20T08:45:20.926Z,17.37
2019-03-20T08:50:34.377Z,16.57
2019-03-20T08:53:02.105Z,23.70
2019-03-20T08:55:29.934Z,20.93
2019-03-20T08:57:57.976Z,23.00
2019-03-20T09:00:25.827Z,19.47
2019-03-20T09:02:53.603Z,18.40
2019-03-20T09:05:21.673Z,17.97
2019-03-20T09:07:49.436Z,17.93
2019-03-20T09:10:17.203Z,17.63
2019-03-20T09:12:50.809Z,18.43
2019-03-20T09:15:18.541Z,17.17
2019-03-20T09:17:46.525Z,16.63
2019-03-20T09:20:14.511Z,17.10
2019-03-20T09:22:42.377Z,17.40
2019-03-20T09:25:10.133Z,17.57
2019-03-20T09:27:37.948Z,17.57
2019-03-20T09:30:05.894Z,17.60
2019-03-20T09:32:33.681Z,17.00
2019-03-20T09:35:01.537Z,16.47
2019-03-20T09:37:29.294Z,16.33
2019-03-20T09:39:57.160Z,15.97
2019-03-20T09:42:24.839Z,22.22
2019-03-20T09:44:52.396Z,15.93
2019-03-20T09:47:19.820Z,15.43
2019-03-20T09:49:47.620Z,15.47
2019-03-20T09:52:15.509Z,14.40
2019-03-20T09:54:43.369Z,14.70
2019-03-20T09:57:11.437Z,19.23
2019-03-20T09:59:39.742Z,16.40
2019-03-20T10:02:07.476Z,19.60
2019-03-20T10:04:35.325Z,14.40
2019-03-20T10:07:03.069Z,15.43
2019-03-20T10:09:30.930Z,14.20
2019-03-20T10:11:58.854Z,13.07
2019-03-20T10:14:26.727Z,18.13
2019-03-20T10:16:54.475Z,14.83
2019-03-20T10:19:22.383Z,15.40
2019-03-20T10:21:50.334Z,15.50
2019-03-20T10:24:18.205Z,14.23
2019-03-20T10:26:46.569Z,14.63
2019-03-20T10:29:14.344Z,17.27
2019-03-20T10:31:41.892Z,13.85
2019-03-20T10:34:09.457Z,13.78
2019-03-20T10:36:37.002Z,13.75
2019-03-20T10:39:06.663Z,14.38
2019-03-20T10:41:33.803Z,14.40
2019-03-20T10:44:01.319Z,15.13
2019-03-20T10:46:28.720Z,12.78
2019-03-20T10:48:56.549Z,14.47
2019-03-20T10:51:24.118Z,12.75
2019-03-20T10:53:51.586Z,12.68
2019-03-20T10:56:19.160Z,11.28
2019-03-20T10:58:46.696Z,11.35
2019-03-20T11:01:14.268Z,11.18
2019-03-20T11:03:41.761Z,11.95
2019-03-20T11:06:09.293Z,10.72
2019-03-20T11:08:36.873Z,11.95
2019-03-20T11:11:04.342Z,11.60
2019-03-20T11:13:31.868Z,11.73
2019-03-20T11:15:59.300Z,13.78
2019-03-20T11:18:26.781Z,11.63
2019-03-20T11:20:54.357Z,11.22
2019-03-20T11:23:21.809Z,11.73
2019-03-20T11:25:49.372Z,11.20
2019-03-20T11:28:16.843Z,13.03
2019-03-20T11:30:44.517Z,12.00
2019-03-20T11:33:12.087Z,12.98
2019-03-20T11:35:42.353Z,12.07
2019-03-20T11:38:08.834Z,12.23
2019-03-20T11:40:36.357Z,11.43
2019-03-20T11:43:04.284Z,10.17
2019-03-20T11:45:32.219Z,9.70
2019-03-20T11:48:00.115Z,11.07
2019-03-20T11:50:27.962Z,11.43
2019-03-20T11:52:55.827Z,10.93
2019-03-20T11:55:23.574Z,10.77
2019-03-20T11:57:51.600Z,10.87
2019-03-20T12:00:19.299Z,9.27
2019-03-20T12:02:47.132Z,10.33
2019-03-20T12:05:14.963Z,9.30
2019-03-20T12:07:42.639Z,9.83
2019-03-20T12:10:10.371Z,9.35
2019-03-20T12:12:38.237Z,10.00
2019-03-20T12:15:06.036Z,8.87
2019-03-20T12:17:33.642Z,9.38
2019-03-20T12:20:01.366Z,9.98
2019-03-20T12:22:28.885Z,9.45
2019-03-20T12:24:56.405Z,9.75
2019-03-20T12:27:23.877Z,9.70
2019-03-20T12:29:51.393Z,9.95
2019-03-20T12:32:18.834Z,9.23
2019-03-20T12:34:46.457Z,8.73
2019-03-20T12:37:13.999Z,8.98
2019-03-20T12:39:52.606Z,10.08
2019-03-20T12:42:10.849Z,9.45
2019-03-20T12:44:38.432Z,8.98
2019-03-20T12:47:05.988Z,9.35
2019-03-20T12:49:33.633Z,8.20
2019-03-20T12:52:01.061Z,8.65
2019-03-20T12:54:28.550Z,9.40
2019-03-20T12:56:56.106Z,8.83
2019-03-20T12:59:23.706Z,8.95
2019-03-20T13:01:51.246Z,9.03
2019-03-20T13:04:18.848Z,9.30
2019-03-20T13:06:46.681Z,8.57
2019-03-20T13:09:14.337Z,8.15
2019-03-20T13:11:41.924Z,9.20
2019-03-20T13:14:09.459Z,10.15
2019-03-20T13:16:37.223Z,9.65
2019-03-20T13:19:04.766Z,9.23
2019-03-20T13:21:32.671Z,9.40
2019-03-20T13:24:00.261Z,9.00
2019-03-20T13:26:27.703Z,8.80
2019-03-20T13:28:55.339Z,8.85
2019-03-20T13:31:22.920Z,8.95
2019-03-20T13:33:50.563Z,9.55
2019-03-20T13:36:18.037Z,9.15
2019-03-20T13:38:45.591Z,9.78
2019-03-20T13:41:13.198Z,9.35
2019-03-20T13:43:40.716Z,9.55
2019-03-20T13:46:08.257Z,8.75
2019-03-20T13:48:35.811Z,9.38
2019-03-20T13:51:03.522Z,9.33
2019-03-20T13:53:31.363Z,10.07
2019-03-20T13:55:59.226Z,10.17
2019-03-20T13:58:27.025Z,9.87
2019-03-20T14:00:54.869Z,9.80
2019-03-20T14:03:22.641Z,10.50
2019-03-20T14:05:50.621Z,9.33
2019-03-20T14:08:18.504Z,10.03
2019-03-20T14:10:50.369Z,10.17
2019-03-20T14:13:15.860Z,10.67
2019-03-20T14:15:43.717Z,9.43
2019-03-20T14:18:11.456Z,12.47
2019-03-20T14:20:39.195Z,17.97
2019-03-20T14:23:07.018Z,11.10
2019-03-20T14:25:34.949Z,12.90
2019-03-20T14:28:02.739Z,10.70
2019-03-20T14:30:30.659Z,11.17
2019-03-20T14:33:02.699Z,13.30
2019-03-20T14:35:30.621Z,11.73
2019-03-20T14:38:00.625Z,10.87
2019-03-20T14:40:37.465Z,11.63
2019-03-20T14:43:00.817Z,11.68
2019-03-20T14:45:28.356Z,12.05
2019-03-20T14:47:56.170Z,12.20
2019-03-20T14:50:24.018Z,11.70
2019-03-20T14:52:51.831Z,11.80
2019-03-20T14:55:19.598Z,11.53
2019-03-20T14:57:47.505Z,11.50
2019-03-20T15:00:20.415Z,10.43
2019-03-20T15:02:48.346Z,10.37
2019-03-20T15:05:16.057Z,10.07
2019-03-20T15:07:44.178Z,11.20
2019-03-20T15:10:12.000Z,10.00
2019-03-20T15:12:39.965Z,10.70
2019-03-20T15:15:07.655Z,11.73
2019-03-20T15:17:35.292Z,12.07
2019-03-20T15:20:02.728Z,13.00
2019-03-20T15:22:30.523Z,11.73
2019-03-20T15:24:58.695Z,11.97
2019-03-20T15:27:26.560Z,10.67
2019-03-20T15:29:54.467Z,11.93
2019-03-20T15:32:22.286Z,13.60
2019-03-20T15:34:50.334Z,12.37
2019-03-20T15:37:18.163Z,11.80
2019-03-20T15:39:45.991Z,11.10
2019-03-20T15:42:13.799Z,11.83
2019-03-20T15:44:41.625Z,11.40
2019-03-20T15:47:09.408Z,11.77
2019-03-20T15:49:37.190Z,12.00
2019-03-20T15:52:04.939Z,12.13
2019-03-20T15:54:32.692Z,11.77
2019-03-20T15:57:00.499Z,10.83
2019-03-20T15:59:28.347Z,12.90
2019-03-20T16:01:56.004Z,13.83
2019-03-20T16:04:23.565Z,13.70
2019-03-20T16:06:51.008Z,12.93
2019-03-20T16:09:18.605Z,15.00
2019-03-20T16:11:46.192Z,16.80
2019-03-20T16:14:13.929Z,15.15
2019-03-20T16:16:41.481Z,16.20
2019-03-20T16:19:09.052Z,15.03
2019-03-20T16:21:36.602Z,15.20
2019-03-20T16:24:04.203Z,13.62
2019-03-20T16:26:31.711Z,14.15
2019-03-20T16:28:59.167Z,13.55
2019-03-20T16:31:26.754Z,14.18
2019-03-20T16:33:54.307Z,15.00
2019-03-20T16:36:22.181Z,14.03
2019-03-20T16:38:49.734Z,15.88
2019-03-20T16:41:17.323Z,15.88
2019-03-20T16:43:45.253Z,16.55
2019-03-20T16:46:12.779Z,16.00
2019-03-20T16:48:40.277Z,16.67
2019-03-20T16:51:07.750Z,20.55
2019-03-20T16:53:35.545Z,17.23
2019-03-20T16:56:03.905Z,17.27
2019-03-20T16:58:31.761Z,16.80
2019-03-20T17:00:59.581Z,15.20
2019-03-20T17:03:27.407Z,21.03
2019-03-20T17:05:55.327Z,18.37
2019-03-20T17:08:23.242Z,19.03
2019-03-20T17:10:50.958Z,17.63
2019-03-20T17:13:18.693Z,19.80
2019-03-20T17:15:46.531Z,19.73
2019-03-20T17:18:14.398Z,16.90
2019-03-20T17:20:42.277Z,23.23
2019-03-20T17:23:10.130Z,22.13
2019-03-20T17:25:38.058Z,21.17
2019-03-20T17:28:05.884Z,20.50
2019-03-20T17:30:33.748Z,16.27
2019-03-20T17:33:01.489Z,20.33
2019-03-20T17:35:29.387Z,20.50
2019-03-20T17:37:57.256Z,19.73
2019-03-20T17:40:25.001Z,21.73
2019-03-20T17:42:53.243Z,21.17
2019-03-20T17:45:21.168Z,21.73
2019-03-20T17:47:49.386Z,21.13
2019-03-20T17:50:17.321Z,20.50
2019-03-20T17:52:45.357Z,21.40
2019-03-20T17:55:13.256Z,20.00
2019-03-20T17:57:41.149Z,20.77
2019-03-20T18:00:08.974Z,22.87
2019-03-20T18:02:36.683Z,20.97
2019-03-20T18:05:04.538Z,27.00
2019-03-20T18:07:32.253Z,22.63
2019-03-20T18:10:00.306Z,28.17
2019-03-20T18:12:28.125Z,27.30
2019-03-20T18:14:55.967Z,28.33
2019-03-20T18:17:23.902Z,25.97
2019-03-20T18:19:52.374Z,63.57
2019-03-20T18:22:20.215Z,54.27
2019-03-20T18:24:48.016Z,43.23
2019-03-20T18:27:15.862Z,39.70
2019-03-20T18:29:43.607Z,32.27
2019-03-20T18:32:11.415Z,28.03
2019-03-20T18:34:39.278Z,26.03
2019-03-20T18:37:07.037Z,27.00
2019-03-20T18:39:34.915Z,26.03
2019-03-20T18:42:04.372Z,53.27
2019-03-20T18:44:32.188Z,22.37
2019-03-20T18:47:00.167Z,29.17
2019-03-20T18:49:27.913Z,27.67
2019-03-20T18:51:55.819Z,28.40
2019-03-20T18:54:23.655Z,21.50
2019-03-20T18:56:51.459Z,20.57
2019-03-20T18:59:19.375Z,23.10
2019-03-20T19:01:47.255Z,21.50
2019-03-20T19:04:15.128Z,23.17
2019-03-20T19:06:42.968Z,21.03
2019-03-20T19:09:12.111Z,21.60
2019-03-20T19:11:44.355Z,21.83
2019-03-20T19:14:20.609Z,22.87
2019-03-20T19:17:00.040Z,24.33
2019-03-20T19:19:31.642Z,23.60
2019-03-20T19:21:59.388Z,22.98
2019-03-20T19:24:26.810Z,24.02
2019-03-20T19:26:55.406Z,24.00
2019-03-20T19:29:31.357Z,24.70
2019-03-20T19:32:03.865Z,25.97
2019-03-20T19:34:35.699Z,28.17
2019-03-20T19:37:04.516Z,25.27
2019-03-20T19:39:34.461Z,25.00
2019-03-20T19:42:02.006Z,24.47
2019-03-20T19:44:29.543Z,25.12
2019-03-20T19:46:57.101Z,24.20
2019-03-20T19:49:24.560Z,27.25
2019-03-20T19:51:52.018Z,31.45
2019-03-20T19:54:19.786Z,35.60
2019-03-20T19:56:47.592Z,34.30
2019-03-20T19:59:15.704Z,37.03
2019-03-20T20:01:43.537Z,43.47
2019-03-20T20:04:11.407Z,49.97
2019-03-20T20:06:39.604Z,60.00
2019-03-20T20:09:07.384Z,64.07
2019-03-20T20:11:35.396Z,61.50
2019-03-20T20:14:03.208Z,58.83
2019-03-20T20:16:31.027Z,47.00
2019-03-20T20:18:58.754Z,39.90
2019-03-20T20:21:26.560Z,36.77
2019-03-20T20:23:55.738Z,33.03
2019-03-20T20:26:23.639Z,36.17
2019-03-20T20:28:51.384Z,37.80
2019-03-20T20:31:19.108Z,45.10
2019-03-20T20:33:46.928Z,48.73
2019-03-20T20:36:14.829Z,42.47
2019-03-20T20:38:42.677Z,38.20
2019-03-20T20:41:10.560Z,41.27
2019-03-20T20:43:39.850Z,41.77
2019-03-20T20:46:07.990Z,38.40
2019-03-20T20:48:35.803Z,33.83
2019-03-20T20:51:03.858Z,32.57
2019-03-20T20:53:31.600Z,32.03
2019-03-20T20:55:59.398Z,26.97
2019-03-20T20:58:27.163Z,24.43
2019-03-20T21:00:54.964Z,25.47
2019-03-20T21:03:22.795Z,25.60
2019-03-20T21:05:50.607Z,25.17
2019-03-20T21:08:18.432Z,26.50
2019-03-20T21:10:46.283Z,24.83
2019-03-20T21:13:14.413Z,25.03
2019-03-20T21:15:45.617Z,25.17
2019-03-20T21:18:15.974Z,28.62
2019-03-20T21:20:47.015Z,25.37
2019-03-20T21:23:18.358Z,26.95
2019-03-20T21:25:46.690Z,26.75
2019-03-20T21:28:18.106Z,25.47
2019-03-20T21:30:47.005Z,36.13
2019-03-20T21:33:15.056Z,35.40
2019-03-20T21:35:42.528Z,35.92
2019-03-20T21:38:11.496Z,38.10
2019-03-20T21:40:39.286Z,35.13
2019-03-20T21:43:07.579Z,36.55
2019-03-20T21:45:39.348Z,35.03
2019-03-20T21:48:07.417Z,36.13
2019-03-20T21:50:37.980Z,35.78
2019-03-20T21:53:05.480Z,30.68
2019-03-20T21:55:32.986Z,33.20
2019-03-20T21:58:00.530Z,28.92
2019-03-20T22:00:28.079Z,27.10
2019-03-20T22:02:55.629Z,27.00
2019-03-20T22:05:27.323Z,28.35
2019-03-20T22:07:56.263Z,33.25
2019-03-20T22:10:23.831Z,28.17
2019-03-20T22:12:51.380Z,32.95
2019-03-20T22:15:18.969Z,29.10
2019-03-20T22:17:50.801Z,30.77
2019-03-20T22:20:15.601Z,30.00
2019-03-20T22:22:43.959Z,25.52
2019-03-20T22:25:11.817Z,22.67
2019-03-20T22:27:39.604Z,25.37
2019-03-20T22:30:07.383Z,27.90
2019-03-20T22:32:35.275Z,23.23
2019-03-20T22:35:03.700Z,22.83
2019-03-20T22:37:34.781Z,22.60
2019-03-20T22:40:02.413Z,23.40
2019-03-20T22:42:34.479Z,23.83
2019-03-20T22:45:04.073Z,29.23
2019-03-20T22:47:33.697Z,24.83
2019-03-20T22:50:01.488Z,24.60
2019-03-20T22:52:29.400Z,23.80
2019-03-20T22:54:57.413Z,24.03
2019-03-20T22:57:25.199Z,24.93
2019-03-20T22:59:52.980Z,27.33
2019-03-20T23:02:20.818Z,29.57
2019-03-20T23:04:48.614Z,28.37
2019-03-20T23:07:16.325Z,27.93
2019-03-20T23:09:44.135Z,26.03
2019-03-20T23:12:11.887Z,27.73
2019-03-20T23:14:39.599Z,26.13
2019-03-20T23:17:07.585Z,26.40
2019-03-20T23:19:35.405Z,25.40
2019-03-20T23:22:03.201Z,27.90
2019-03-20T23:24:30.935Z,25.97
2019-03-20T23:26:58.664Z,24.73
2019-03-20T23:29:26.388Z,25.27
2019-03-20T23:31:54.120Z,26.07
2019-03-20T23:34:21.851Z,27.67
2019-03-20T23:36:49.624Z,27.53
2019-03-20T23:39:17.441Z,29.97
2019-03-20T23:41:45.209Z,26.73
2019-03-20T23:44:12.977Z,28.47
2019-03-20T23:46:40.840Z,28.87
2019-03-20T23:49:08.599Z,30.23
2019-03-20T23:51:36.472Z,30.27
2019-03-20T23:54:04.228Z,29.07
2019-03-20T23:56:32.055Z,26.73
2019-03-20T23:58:59.862Z,29.53
